sensor_id;sensor_type;location;lat;lon;timestamp;P1;durP1;ratioP1;P2;durP2;ratioP2
9773;SDS011;4926;42.670;23.316;2023-06-14T00:00:36;7.07;;;6.32;;
9773;SDS011;4926;42.670;23.316;2023-06-14T00:03:06;7.07;;;6.38;;
9773;SDS011;4926;42.670;23.316;2023-06-14T00:05:33;6.63;;;5.95;;
9773;SDS011;4926;42.670;23.316;2023-06-14T00:08:05;6.55;;;5.75;;
9773;SDS011;4926;42.670;23.316;2023-06-14T00:10:33;8.85;;;6.80;;
9773;SDS011;4926;42.670;23.316;2023-06-14T00:13:00;7.20;;;6.50;;
9773;SDS011;4926;42.670;23.316;2023-06-14T00:15:27;7.30;;;6.50;;
9773;SDS011;4926;42.670;23.316;2023-06-14T00:17:54;8.35;;;6.40;;
9773;SDS011;4926;42.670;23.316;2023-06-14T00:20:21;8.20;;;6.30;;
9773;SDS011;4926;42.670;23.316;2023-06-14T00:22:48;11.57;;;6.40;;
9773;SDS011;4926;42.670;23.316;2023-06-14T00:25:16;8.43;;;5.80;;
9773;SDS011;4926;42.670;23.316;2023-06-14T00:27:43;12.25;;;6.60;;
9773;SDS011;4926;42.670;23.316;2023-06-14T00:30:10;7.10;;;6.32;;
9773;SDS011;4926;42.670;23.316;2023-06-14T00:32:37;7.43;;;6.15;;
9773;SDS011;4926;42.670;23.316;2023-06-14T00:35:04;7.07;;;6.10;;
9773;SDS011;4926;42.670;23.316;2023-06-14T00:37:33;7.28;;;6.38;;
9773;SDS011;4926;42.670;23.316;2023-06-14T00:39:59;6.82;;;6.15;;
9773;SDS011;4926;42.670;23.316;2023-06-14T00:42:27;6.68;;;6.07;;
9773;SDS011;4926;42.670;23.316;2023-06-14T00:44:54;6.75;;;6.10;;
9773;SDS011;4926;42.670;23.316;2023-06-14T00:47:21;6.57;;;5.78;;
9773;SDS011;4926;42.670;23.316;2023-06-14T00:49:49;6.30;;;5.43;;
9773;SDS011;4926;42.670;23.316;2023-06-14T00:52:17;5.88;;;5.38;;
9773;SDS011;4926;42.670;23.316;2023-06-14T00:54:44;7.28;;;5.85;;
9773;SDS011;4926;42.670;23.316;2023-06-14T00:57:11;6.07;;;5.50;;
9773;SDS011;4926;42.670;23.316;2023-06-14T00:59:42;7.68;;;5.55;;
9773;SDS011;4926;42.670;23.316;2023-06-14T01:02:10;6.20;;;5.60;;
9773;SDS011;4926;42.670;23.316;2023-06-14T01:04:38;6.47;;;5.50;;
9773;SDS011;4926;42.670;23.316;2023-06-14T01:07:10;5.85;;;5.25;;
9773;SDS011;4926;42.670;23.316;2023-06-14T01:09:45;7.13;;;5.45;;
9773;SDS011;4926;42.670;23.316;2023-06-14T01:12:17;7.00;;;5.35;;
9773;SDS011;4926;42.670;23.316;2023-06-14T01:14:52;8.10;;;5.47;;
9773;SDS011;4926;42.670;23.316;2023-06-14T01:17:21;8.00;;;5.78;;
9773;SDS011;4926;42.670;23.316;2023-06-14T01:19:49;5.88;;;5.28;;
9773;SDS011;4926;42.670;23.316;2023-06-14T01:22:23;6.15;;;5.47;;
9773;SDS011;4926;42.670;23.316;2023-06-14T01:24:53;7.05;;;5.20;;
9773;SDS011;4926;42.670;23.316;2023-06-14T01:27:21;7.45;;;5.60;;
9773;SDS011;4926;42.670;23.316;2023-06-14T01:29:53;5.30;;;4.78;;
9773;SDS011;4926;42.670;23.316;2023-06-14T01:32:21;5.93;;;5.25;;
9773;SDS011;4926;42.670;23.316;2023-06-14T01:34:49;8.45;;;5.35;;
9773;SDS011;4926;42.670;23.316;2023-06-14T01:37:15;5.70;;;5.13;;
9773;SDS011;4926;42.670;23.316;2023-06-14T01:39:44;6.18;;;5.15;;
9773;SDS011;4926;42.670;23.316;2023-06-14T01:42:14;5.60;;;5.10;;
9773;SDS011;4926;42.670;23.316;2023-06-14T01:44:42;7.00;;;5.05;;
9773;SDS011;4926;42.670;23.316;2023-06-14T01:47:10;7.15;;;5.45;;
9773;SDS011;4926;42.670;23.316;2023-06-14T01:49:38;7.28;;;5.78;;
9773;SDS011;4926;42.670;23.316;2023-06-14T01:52:05;6.75;;;5.95;;
9773;SDS011;4926;42.670;23.316;2023-06-14T01:54:34;6.57;;;5.22;;
9773;SDS011;4926;42.670;23.316;2023-06-14T01:57:03;6.78;;;5.60;;
9773;SDS011;4926;42.670;23.316;2023-06-14T01:59:33;7.00;;;6.30;;
9773;SDS011;4926;42.670;23.316;2023-06-14T02:02:00;7.72;;;6.30;;
9773;SDS011;4926;42.670;23.316;2023-06-14T02:04:27;6.40;;;5.80;;
9773;SDS011;4926;42.670;23.316;2023-06-14T02:06:54;6.05;;;5.40;;
9773;SDS011;4926;42.670;23.316;2023-06-14T02:09:21;8.00;;;5.95;;
9773;SDS011;4926;42.670;23.316;2023-06-14T02:11:48;9.32;;;5.97;;
9773;SDS011;4926;42.670;23.316;2023-06-14T02:14:15;8.15;;;6.32;;
9773;SDS011;4926;42.670;23.316;2023-06-14T02:16:44;5.97;;;5.47;;
9773;SDS011;4926;42.670;23.316;2023-06-14T02:19:14;7.68;;;6.00;;
9773;SDS011;4926;42.670;23.316;2023-06-14T02:21:40;6.68;;;6.07;;
9773;SDS011;4926;42.670;23.316;2023-06-14T02:24:07;7.07;;;6.38;;
9773;SDS011;4926;42.670;23.316;2023-06-14T02:26:34;8.90;;;6.85;;
9773;SDS011;4926;42.670;23.316;2023-06-14T02:29:02;7.30;;;6.55;;
9773;SDS011;4926;42.670;23.316;2023-06-14T02:31:30;9.02;;;6.43;;
9773;SDS011;4926;42.670;23.316;2023-06-14T02:33:59;8.30;;;6.57;;
9773;SDS011;4926;42.670;23.316;2023-06-14T02:36:25;8.35;;;6.40;;
9773;SDS011;4926;42.670;23.316;2023-06-14T02:38:52;9.25;;;6.70;;
9773;SDS011;4926;42.670;23.316;2023-06-14T02:41:19;7.78;;;6.72;;
9773;SDS011;4926;42.670;23.316;2023-06-14T02:43:46;8.65;;;6.50;;
9773;SDS011;4926;42.670;23.316;2023-06-14T02:46:13;7.80;;;7.00;;
9773;SDS011;4926;42.670;23.316;2023-06-14T02:48:40;9.95;;;7.03;;
9773;SDS011;4926;42.670;23.316;2023-06-14T02:51:08;7.88;;;6.60;;
9773;SDS011;4926;42.670;23.316;2023-06-14T02:53:34;7.55;;;6.65;;
9773;SDS011;4926;42.670;23.316;2023-06-14T02:56:01;10.65;;;7.35;;
9773;SDS011;4926;42.670;23.316;2023-06-14T02:58:28;7.90;;;7.18;;
9773;SDS011;4926;42.670;23.316;2023-06-14T03:00:55;8.38;;;7.57;;
9773;SDS011;4926;42.670;23.316;2023-06-14T03:03:22;8.35;;;7.18;;
9773;SDS011;4926;42.670;23.316;2023-06-14T03:05:49;9.13;;;7.15;;
9773;SDS011;4926;42.670;23.316;2023-06-14T03:08:18;8.48;;;7.55;;
9773;SDS011;4926;42.670;23.316;2023-06-14T03:10:45;9.88;;;6.85;;
9773;SDS011;4926;42.670;23.316;2023-06-14T03:13:13;8.35;;;7.20;;
9773;SDS011;4926;42.670;23.316;2023-06-14T03:15:40;8.27;;;7.45;;
9773;SDS011;4926;42.670;23.316;2023-06-14T03:18:10;9.10;;;6.85;;
9773;SDS011;4926;42.670;23.316;2023-06-14T03:20:37;8.18;;;7.38;;
9773;SDS011;4926;42.670;23.316;2023-06-14T03:23:06;12.75;;;7.60;;
9773;SDS011;4926;42.670;23.316;2023-06-14T03:25:34;7.88;;;6.80;;
9773;SDS011;4926;42.670;23.316;2023-06-14T03:28:03;10.85;;;7.18;;
9773;SDS011;4926;42.670;23.316;2023-06-14T03:30:30;8.88;;;7.38;;
9773;SDS011;4926;42.670;23.316;2023-06-14T03:32:58;7.95;;;6.60;;
9773;SDS011;4926;42.670;23.316;2023-06-14T03:35:26;8.52;;;6.80;;
9773;SDS011;4926;42.670;23.316;2023-06-14T03:37:53;8.32;;;6.97;;
9773;SDS011;4926;42.670;23.316;2023-06-14T03:40:20;8.52;;;6.55;;
9773;SDS011;4926;42.670;23.316;2023-06-14T03:42:52;10.98;;;6.60;;
9773;SDS011;4926;42.670;23.316;2023-06-14T03:45:18;7.95;;;6.70;;
9773;SDS011;4926;42.670;23.316;2023-06-14T03:47:45;7.15;;;5.57;;
9773;SDS011;4926;42.670;23.316;2023-06-14T03:50:12;7.95;;;6.10;;
9773;SDS011;4926;42.670;23.316;2023-06-14T03:52:40;6.95;;;6.00;;
9773;SDS011;4926;42.670;23.316;2023-06-14T03:55:08;7.30;;;6.38;;
9773;SDS011;4926;42.670;23.316;2023-06-14T03:57:35;7.60;;;6.00;;
9773;SDS011;4926;42.670;23.316;2023-06-14T04:00:03;6.80;;;6.10;;
9773;SDS011;4926;42.670;23.316;2023-06-14T04:02:31;8.13;;;6.68;;
9773;SDS011;4926;42.670;23.316;2023-06-14T04:04:57;7.22;;;6.53;;
9773;SDS011;4926;42.670;23.316;2023-06-14T04:07:24;8.32;;;6.47;;
9773;SDS011;4926;42.670;23.316;2023-06-14T04:09:53;8.48;;;6.50;;
9773;SDS011;4926;42.670;23.316;2023-06-14T04:12:20;8.32;;;6.93;;
9773;SDS011;4926;42.670;23.316;2023-06-14T04:14:46;7.80;;;6.45;;
9773;SDS011;4926;42.670;23.316;2023-06-14T04:17:15;8.02;;;6.90;;
9773;SDS011;4926;42.670;23.316;2023-06-14T04:19:41;8.50;;;6.57;;
9773;SDS011;4926;42.670;23.316;2023-06-14T04:22:08;10.38;;;7.43;;
9773;SDS011;4926;42.670;23.316;2023-06-14T04:24:36;7.55;;;6.85;;
9773;SDS011;4926;42.670;23.316;2023-06-14T04:27:03;8.30;;;7.50;;
9773;SDS011;4926;42.670;23.316;2023-06-14T04:29:31;9.90;;;7.15;;
9773;SDS011;4926;42.670;23.316;2023-06-14T04:31:58;43.85;;;17.70;;
9773;SDS011;4926;42.670;23.316;2023-06-14T04:34:28;23.27;;;12.38;;
9773;SDS011;4926;42.670;23.316;2023-06-14T04:36:56;12.73;;;8.07;;
9773;SDS011;4926;42.670;23.316;2023-06-14T04:39:24;13.07;;;8.45;;
9773;SDS011;4926;42.670;23.316;2023-06-14T04:41:51;15.40;;;8.55;;
9773;SDS011;4926;42.670;23.316;2023-06-14T04:44:21;9.98;;;7.68;;
9773;SDS011;4926;42.670;23.316;2023-06-14T04:46:55;8.70;;;7.90;;
9773;SDS011;4926;42.670;23.316;2023-06-14T04:49:23;10.25;;;7.90;;
9773;SDS011;4926;42.670;23.316;2023-06-14T04:51:53;12.18;;;8.40;;
9773;SDS011;4926;42.670;23.316;2023-06-14T04:54:24;9.45;;;8.55;;
9773;SDS011;4926;42.670;23.316;2023-06-14T04:56:51;10.07;;;7.95;;
9773;SDS011;4926;42.670;23.316;2023-06-14T04:59:20;12.43;;;8.95;;
9773;SDS011;4926;42.670;23.316;2023-06-14T05:01:48;8.88;;;7.93;;
9773;SDS011;4926;42.670;23.316;2023-06-14T05:04:15;9.25;;;8.18;;
9773;SDS011;4926;42.670;23.316;2023-06-14T05:06:41;10.35;;;8.52;;
9773;SDS011;4926;42.670;23.316;2023-06-14T05:09:11;9.98;;;8.95;;
9773;SDS011;4926;42.670;23.316;2023-06-14T05:11:38;13.52;;;9.32;;
9773;SDS011;4926;42.670;23.316;2023-06-14T05:14:04;13.32;;;9.98;;
9773;SDS011;4926;42.670;23.316;2023-06-14T05:16:32;13.98;;;9.45;;
9773;SDS011;4926;42.670;23.316;2023-06-14T05:18:59;13.45;;;9.93;;
9773;SDS011;4926;42.670;23.316;2023-06-14T05:21:26;16.00;;;10.95;;
9773;SDS011;4926;42.670;23.316;2023-06-14T05:23:53;12.95;;;10.98;;
9773;SDS011;4926;42.670;23.316;2023-06-14T05:26:22;13.13;;;10.98;;
9773;SDS011;4926;42.670;23.316;2023-06-14T05:28:53;12.90;;;11.55;;
9773;SDS011;4926;42.670;23.316;2023-06-14T05:31:21;17.55;;;11.52;;
9773;SDS011;4926;42.670;23.316;2023-06-14T05:33:48;13.25;;;11.00;;
9773;SDS011;4926;42.670;23.316;2023-06-14T05:36:15;12.77;;;11.15;;
9773;SDS011;4926;42.670;23.316;2023-06-14T05:38:41;12.88;;;11.50;;
9773;SDS011;4926;42.670;23.316;2023-06-14T05:41:08;15.43;;;11.25;;
9773;SDS011;4926;42.670;23.316;2023-06-14T05:43:36;12.98;;;11.63;;
9773;SDS011;4926;42.670;23.316;2023-06-14T05:46:03;15.35;;;11.73;;
9773;SDS011;4926;42.670;23.316;2023-06-14T05:48:30;15.43;;;11.38;;
9773;SDS011;4926;42.670;23.316;2023-06-14T05:50:57;13.93;;;10.93;;
9773;SDS011;4926;42.670;23.316;2023-06-14T05:53:24;16.40;;;11.50;;
9773;SDS011;4926;42.670;23.316;2023-06-14T05:55:56;12.88;;;11.32;;
9773;SDS011;4926;42.670;23.316;2023-06-14T05:58:23;12.25;;;10.95;;
9773;SDS011;4926;42.670;23.316;2023-06-14T06:00:51;13.73;;;12.20;;
9773;SDS011;4926;42.670;23.316;2023-06-14T06:03:18;13.45;;;12.05;;
9773;SDS011;4926;42.670;23.316;2023-06-14T06:05:46;12.60;;;11.30;;
9773;SDS011;4926;42.670;23.316;2023-06-14T06:08:12;14.40;;;12.20;;
9773;SDS011;4926;42.670;23.316;2023-06-14T06:10:39;14.82;;;12.10;;
9773;SDS011;4926;42.670;23.316;2023-06-14T06:13:06;13.98;;;12.50;;
9773;SDS011;4926;42.670;23.316;2023-06-14T06:15:33;14.57;;;13.00;;
9773;SDS011;4926;42.670;23.316;2023-06-14T06:18:01;15.25;;;12.65;;
9773;SDS011;4926;42.670;23.316;2023-06-14T06:20:28;18.10;;;11.73;;
9773;SDS011;4926;42.670;23.316;2023-06-14T06:22:56;16.40;;;11.85;;
9773;SDS011;4926;42.670;23.316;2023-06-14T06:25:25;13.77;;;11.48;;
9773;SDS011;4926;42.670;23.316;2023-06-14T06:27:53;14.15;;;11.55;;
9773;SDS011;4926;42.670;23.316;2023-06-14T06:30:21;16.95;;;11.30;;
9773;SDS011;4926;42.670;23.316;2023-06-14T06:32:48;14.98;;;12.43;;
9773;SDS011;4926;42.670;23.316;2023-06-14T06:35:17;13.73;;;11.25;;
9773;SDS011;4926;42.670;23.316;2023-06-14T06:37:43;15.23;;;12.50;;
9773;SDS011;4926;42.670;23.316;2023-06-14T06:40:10;18.70;;;13.73;;
9773;SDS011;4926;42.670;23.316;2023-06-14T06:42:37;13.20;;;11.90;;
9773;SDS011;4926;42.670;23.316;2023-06-14T06:45:04;16.27;;;12.30;;
9773;SDS011;4926;42.670;23.316;2023-06-14T06:47:32;17.80;;;14.25;;
9773;SDS011;4926;42.670;23.316;2023-06-14T06:49:59;17.02;;;12.45;;
9773;SDS011;4926;42.670;23.316;2023-06-14T06:52:27;18.92;;;12.60;;
9773;SDS011;4926;42.670;23.316;2023-06-14T06:54:54;18.13;;;13.50;;
9773;SDS011;4926;42.670;23.316;2023-06-14T06:57:21;16.88;;;13.00;;
9773;SDS011;4926;42.670;23.316;2023-06-14T06:59:48;15.55;;;13.23;;
9773;SDS011;4926;42.670;23.316;2023-06-14T07:02:15;21.10;;;13.52;;
9773;SDS011;4926;42.670;23.316;2023-06-14T07:04:42;15.50;;;13.02;;
9773;SDS011;4926;42.670;23.316;2023-06-14T07:07:08;16.33;;;13.73;;
9773;SDS011;4926;42.670;23.316;2023-06-14T07:09:37;19.10;;;14.95;;
9773;SDS011;4926;42.670;23.316;2023-06-14T07:12:04;16.05;;;12.93;;
9773;SDS011;4926;42.670;23.316;2023-06-14T07:14:31;20.65;;;15.30;;
9773;SDS011;4926;42.670;23.316;2023-06-14T07:16:58;15.27;;;13.70;;
9773;SDS011;4926;42.670;23.316;2023-06-14T07:19:25;17.10;;;13.23;;
9773;SDS011;4926;42.670;23.316;2023-06-14T07:21:52;17.85;;;14.43;;
9773;SDS011;4926;42.670;23.316;2023-06-14T07:24:18;18.23;;;14.00;;
9773;SDS011;4926;42.670;23.316;2023-06-14T07:26:47;16.38;;;13.40;;
9773;SDS011;4926;42.670;23.316;2023-06-14T07:29:14;14.02;;;12.43;;
9773;SDS011;4926;42.670;23.316;2023-06-14T07:31:41;14.70;;;12.73;;
9773;SDS011;4926;42.670;23.316;2023-06-14T07:34:09;14.10;;;12.60;;
9773;SDS011;4926;42.670;23.316;2023-06-14T07:36:35;13.48;;;12.02;;
9773;SDS011;4926;42.670;23.316;2023-06-14T07:39:03;13.70;;;12.05;;
9773;SDS011;4926;42.670;23.316;2023-06-14T07:41:31;18.38;;;11.55;;
9773;SDS011;4926;42.670;23.316;2023-06-14T07:44:00;13.45;;;12.05;;
9773;SDS011;4926;42.670;23.316;2023-06-14T07:46:26;13.00;;;11.70;;
9773;SDS011;4926;42.670;23.316;2023-06-14T07:48:53;13.35;;;11.95;;
9773;SDS011;4926;42.670;23.316;2023-06-14T07:51:20;16.08;;;12.10;;
9773;SDS011;4926;42.670;23.316;2023-06-14T07:53:48;12.73;;;11.40;;
9773;SDS011;4926;42.670;23.316;2023-06-14T07:56:15;13.48;;;10.80;;
9773;SDS011;4926;42.670;23.316;2023-06-14T07:58:41;11.23;;;10.13;;
9773;SDS011;4926;42.670;23.316;2023-06-14T08:01:09;11.05;;;9.75;;
9773;SDS011;4926;42.670;23.316;2023-06-14T08:03:37;13.40;;;10.02;;
9773;SDS011;4926;42.670;23.316;2023-06-14T08:06:04;9.85;;;8.90;;
9773;SDS011;4926;42.670;23.316;2023-06-14T08:08:31;10.43;;;8.77;;
9773;SDS011;4926;42.670;23.316;2023-06-14T08:10:57;12.32;;;10.13;;
9773;SDS011;4926;42.670;23.316;2023-06-14T08:13:24;13.77;;;11.32;;
9773;SDS011;4926;42.670;23.316;2023-06-14T08:15:51;13.50;;;10.88;;
9773;SDS011;4926;42.670;23.316;2023-06-14T08:18:19;11.95;;;10.82;;
9773;SDS011;4926;42.670;23.316;2023-06-14T08:20:46;12.23;;;10.93;;
9773;SDS011;4926;42.670;23.316;2023-06-14T08:23:13;15.30;;;10.95;;
9773;SDS011;4926;42.670;23.316;2023-06-14T08:25:41;12.45;;;10.85;;
9773;SDS011;4926;42.670;23.316;2023-06-14T08:28:07;13.90;;;11.70;;
9773;SDS011;4926;42.670;23.316;2023-06-14T08:30:34;12.82;;;11.50;;
9773;SDS011;4926;42.670;23.316;2023-06-14T08:33:01;14.00;;;12.40;;
9773;SDS011;4926;42.670;23.316;2023-06-14T08:35:29;14.20;;;11.63;;
9773;SDS011;4926;42.670;23.316;2023-06-14T08:37:55;14.15;;;12.75;;
9773;SDS011;4926;42.670;23.316;2023-06-14T08:40:22;13.95;;;12.02;;
9773;SDS011;4926;42.670;23.316;2023-06-14T08:42:50;16.25;;;12.98;;
9773;SDS011;4926;42.670;23.316;2023-06-14T08:45:18;14.63;;;13.05;;
9773;SDS011;4926;42.670;23.316;2023-06-14T08:47:46;16.00;;;12.90;;
9773;SDS011;4926;42.670;23.316;2023-06-14T08:50:16;14.50;;;12.95;;
9773;SDS011;4926;42.670;23.316;2023-06-14T08:52:48;14.00;;;12.32;;
9773;SDS011;4926;42.670;23.316;2023-06-14T08:55:20;16.00;;;12.63;;
9773;SDS011;4926;42.670;23.316;2023-06-14T08:57:51;17.92;;;12.93;;
9773;SDS011;4926;42.670;23.316;2023-06-14T09:00:19;13.90;;;11.95;;
9773;SDS011;4926;42.670;23.316;2023-06-14T09:02:47;12.88;;;11.55;;
9773;SDS011;4926;42.670;23.316;2023-06-14T09:05:14;13.75;;;12.18;;
9773;SDS011;4926;42.670;23.316;2023-06-14T09:07:43;13.43;;;11.98;;
9773;SDS011;4926;42.670;23.316;2023-06-14T09:10:15;14.70;;;11.43;;
9773;SDS011;4926;42.670;23.316;2023-06-14T09:12:42;12.93;;;11.57;;
9773;SDS011;4926;42.670;23.316;2023-06-14T09:15:09;16.00;;;13.45;;
9773;SDS011;4926;42.670;23.316;2023-06-14T09:17:37;13.20;;;11.95;;
9773;SDS011;4926;42.670;23.316;2023-06-14T09:20:05;13.70;;;12.40;;
9773;SDS011;4926;42.670;23.316;2023-06-14T09:22:34;12.90;;;11.73;;
9773;SDS011;4926;42.670;23.316;2023-06-14T09:25:01;15.10;;;11.32;;
9773;SDS011;4926;42.670;23.316;2023-06-14T09:27:29;11.52;;;10.30;;
9773;SDS011;4926;42.670;23.316;2023-06-14T09:29:56;12.10;;;10.23;;
9773;SDS011;4926;42.670;23.316;2023-06-14T09:32:23;11.13;;;9.90;;
9773;SDS011;4926;42.670;23.316;2023-06-14T09:34:51;12.15;;;10.77;;
9773;SDS011;4926;42.670;23.316;2023-06-14T09:37:27;13.25;;;11.85;;
9773;SDS011;4926;42.670;23.316;2023-06-14T09:39:55;14.70;;;10.02;;
9773;SDS011;4926;42.670;23.316;2023-06-14T09:42:22;14.63;;;10.43;;
9773;SDS011;4926;42.670;23.316;2023-06-14T09:44:52;12.15;;;10.65;;
9773;SDS011;4926;42.670;23.316;2023-06-14T09:47:20;15.85;;;11.48;;
9773;SDS011;4926;42.670;23.316;2023-06-14T09:49:47;14.48;;;11.38;;
9773;SDS011;4926;42.670;23.316;2023-06-14T09:52:15;16.25;;;12.63;;
9773;SDS011;4926;42.670;23.316;2023-06-14T09:54:43;15.60;;;10.98;;
9773;SDS011;4926;42.670;23.316;2023-06-14T09:57:13;12.38;;;10.55;;
9773;SDS011;4926;42.670;23.316;2023-06-14T09:59:41;11.93;;;10.68;;
9773;SDS011;4926;42.670;23.316;2023-06-14T10:02:18;11.40;;;10.13;;
9773;SDS011;4926;42.670;23.316;2023-06-14T10:04:50;11.43;;;10.23;;
9773;SDS011;4926;42.670;23.316;2023-06-14T10:07:26;11.80;;;10.43;;
9773;SDS011;4926;42.670;23.316;2023-06-14T10:09:56;11.40;;;10.27;;
9773;SDS011;4926;42.670;23.316;2023-06-14T10:12:23;10.45;;;8.77;;
9773;SDS011;4926;42.670;23.316;2023-06-14T10:14:51;10.30;;;9.30;;
9773;SDS011;4926;42.670;23.316;2023-06-14T10:17:26;11.20;;;10.18;;
9773;SDS011;4926;42.670;23.316;2023-06-14T10:20:03;11.48;;;10.43;;
9773;SDS011;4926;42.670;23.316;2023-06-14T10:22:42;11.27;;;10.15;;
9773;SDS011;4926;42.670;23.316;2023-06-14T10:25:26;11.95;;;10.80;;
9773;SDS011;4926;42.670;23.316;2023-06-14T10:28:02;12.50;;;11.25;;
9773;SDS011;4926;42.670;23.316;2023-06-14T10:30:30;12.10;;;10.77;;
9773;SDS011;4926;42.670;23.316;2023-06-14T10:33:05;11.38;;;10.18;;
9773;SDS011;4926;42.670;23.316;2023-06-14T10:35:33;11.75;;;10.60;;
9773;SDS011;4926;42.670;23.316;2023-06-14T10:38:07;11.98;;;10.55;;
9773;SDS011;4926;42.670;23.316;2023-06-14T10:40:34;11.95;;;9.32;;
9773;SDS011;4926;42.670;23.316;2023-06-14T10:43:17;12.00;;;10.55;;
9773;SDS011;4926;42.670;23.316;2023-06-14T10:48:45;13.02;;;10.00;;
9773;SDS011;4926;42.670;23.316;2023-06-14T10:51:18;12.70;;;10.88;;
9773;SDS011;4926;42.670;23.316;2023-06-14T10:53:47;12.57;;;11.25;;
9773;SDS011;4926;42.670;23.316;2023-06-14T10:56:25;14.35;;;10.32;;
9773;SDS011;4926;42.670;23.316;2023-06-14T10:58:54;12.90;;;11.50;;
9773;SDS011;4926;42.670;23.316;2023-06-14T11:01:26;11.10;;;9.95;;
9773;SDS011;4926;42.670;23.316;2023-06-14T11:04:04;11.50;;;10.43;;
9773;SDS011;4926;42.670;23.316;2023-06-14T11:06:39;15.27;;;9.57;;
9773;SDS011;4926;42.670;23.316;2023-06-14T11:09:30;11.52;;;10.43;;
9773;SDS011;4926;42.670;23.316;2023-06-14T11:12:11;10.90;;;9.90;;
9773;SDS011;4926;42.670;23.316;2023-06-14T11:14:39;12.73;;;11.02;;
9773;SDS011;4926;42.670;23.316;2023-06-14T11:17:06;12.20;;;10.98;;
9773;SDS011;4926;42.670;23.316;2023-06-14T11:19:34;10.07;;;9.10;;
9773;SDS011;4926;42.670;23.316;2023-06-14T11:22:01;12.27;;;9.60;;
9773;SDS011;4926;42.670;23.316;2023-06-14T11:24:28;12.07;;;9.70;;
9773;SDS011;4926;42.670;23.316;2023-06-14T11:26:55;10.20;;;9.30;;
9773;SDS011;4926;42.670;23.316;2023-06-14T11:29:22;10.52;;;9.43;;
9773;SDS011;4926;42.670;23.316;2023-06-14T11:31:50;11.50;;;9.32;;
9773;SDS011;4926;42.670;23.316;2023-06-14T11:34:17;11.57;;;9.30;;
9773;SDS011;4926;42.670;23.316;2023-06-14T11:36:46;13.32;;;11.93;;
9773;SDS011;4926;42.670;23.316;2023-06-14T11:39:13;14.65;;;9.02;;
9773;SDS011;4926;42.670;23.316;2023-06-14T11:41:40;9.57;;;8.68;;
9773;SDS011;4926;42.670;23.316;2023-06-14T11:44:08;11.43;;;9.35;;
9773;SDS011;4926;42.670;23.316;2023-06-14T11:46:35;9.63;;;8.30;;
9773;SDS011;4926;42.670;23.316;2023-06-14T11:49:02;13.40;;;12.00;;
9773;SDS011;4926;42.670;23.316;2023-06-14T11:51:30;18.92;;;9.75;;
9773;SDS011;4926;42.670;23.316;2023-06-14T11:53:58;13.25;;;9.02;;
9773;SDS011;4926;42.670;23.316;2023-06-14T11:56:25;9.88;;;8.77;;
9773;SDS011;4926;42.670;23.316;2023-06-14T11:58:53;9.55;;;8.40;;
9773;SDS011;4926;42.670;23.316;2023-06-14T12:01:21;8.82;;;7.97;;
9773;SDS011;4926;42.670;23.316;2023-06-14T12:03:48;11.07;;;9.52;;
9773;SDS011;4926;42.670;23.316;2023-06-14T12:06:15;10.60;;;8.30;;
9773;SDS011;4926;42.670;23.316;2023-06-14T12:09:02;11.77;;;8.50;;
9773;SDS011;4926;42.670;23.316;2023-06-14T12:11:32;9.15;;;8.25;;
9773;SDS011;4926;42.670;23.316;2023-06-14T12:14:02;9.80;;;8.13;;
9773;SDS011;4926;42.670;23.316;2023-06-14T12:16:30;11.43;;;10.32;;
9773;SDS011;4926;42.670;23.316;2023-06-14T12:19:00;9.02;;;7.80;;
9773;SDS011;4926;42.670;23.316;2023-06-14T12:21:27;7.85;;;7.05;;
9773;SDS011;4926;42.670;23.316;2023-06-14T12:23:54;7.82;;;6.70;;
9773;SDS011;4926;42.670;23.316;2023-06-14T12:26:22;7.90;;;7.20;;
9773;SDS011;4926;42.670;23.316;2023-06-14T12:28:52;7.97;;;6.90;;
9773;SDS011;4926;42.670;23.316;2023-06-14T12:31:18;6.78;;;6.03;;
9773;SDS011;4926;42.670;23.316;2023-06-14T12:33:46;7.05;;;6.10;;
9773;SDS011;4926;42.670;23.316;2023-06-14T12:36:14;7.35;;;6.45;;
9773;SDS011;4926;42.670;23.316;2023-06-14T12:38:41;8.38;;;6.38;;
9773;SDS011;4926;42.670;23.316;2023-06-14T12:41:08;8.45;;;6.65;;
9773;SDS011;4926;42.670;23.316;2023-06-14T12:43:37;6.55;;;5.95;;
9773;SDS011;4926;42.670;23.316;2023-06-14T12:46:03;7.43;;;6.45;;
9773;SDS011;4926;42.670;23.316;2023-06-14T12:48:31;7.93;;;7.13;;
9773;SDS011;4926;42.670;23.316;2023-06-14T12:50:57;11.00;;;7.10;;
9773;SDS011;4926;42.670;23.316;2023-06-14T12:53:24;8.55;;;6.97;;
9773;SDS011;4926;42.670;23.316;2023-06-14T12:55:51;7.78;;;7.07;;
9773;SDS011;4926;42.670;23.316;2023-06-14T12:58:18;7.13;;;6.32;;
9773;SDS011;4926;42.670;23.316;2023-06-14T13:00:46;6.72;;;6.13;;
9773;SDS011;4926;42.670;23.316;2023-06-14T13:03:13;7.60;;;6.15;;
9773;SDS011;4926;42.670;23.316;2023-06-14T13:05:40;11.82;;;6.70;;
9773;SDS011;4926;42.670;23.316;2023-06-14T13:08:08;7.38;;;6.68;;
9773;SDS011;4926;42.670;23.316;2023-06-14T13:10:35;8.45;;;6.88;;
9773;SDS011;4926;42.670;23.316;2023-06-14T13:13:02;7.57;;;6.88;;
9773;SDS011;4926;42.670;23.316;2023-06-14T13:15:29;7.95;;;7.03;;
9773;SDS011;4926;42.670;23.316;2023-06-14T13:17:57;8.07;;;7.28;;
9773;SDS011;4926;42.670;23.316;2023-06-14T13:20:24;8.82;;;7.25;;
9773;SDS011;4926;42.670;23.316;2023-06-14T13:22:51;10.07;;;8.32;;
9773;SDS011;4926;42.670;23.316;2023-06-14T13:25:17;11.50;;;7.60;;
9773;SDS011;4926;42.670;23.316;2023-06-14T13:27:44;8.80;;;7.78;;
9773;SDS011;4926;42.670;23.316;2023-06-14T13:30:11;8.85;;;7.93;;
9773;SDS011;4926;42.670;23.316;2023-06-14T13:32:38;8.70;;;7.88;;
9773;SDS011;4926;42.670;23.316;2023-06-14T13:35:07;10.82;;;8.07;;
9773;SDS011;4926;42.670;23.316;2023-06-14T13:37:34;8.40;;;6.97;;
9773;SDS011;4926;42.670;23.316;2023-06-14T13:40:00;8.32;;;7.47;;
9773;SDS011;4926;42.670;23.316;2023-06-14T13:42:27;8.85;;;7.95;;
9773;SDS011;4926;42.670;23.316;2023-06-14T13:44:56;9.10;;;7.75;;
9773;SDS011;4926;42.670;23.316;2023-06-14T13:47:23;8.85;;;7.43;;
9773;SDS011;4926;42.670;23.316;2023-06-14T13:49:52;11.60;;;8.88;;
9773;SDS011;4926;42.670;23.316;2023-06-14T13:52:21;9.45;;;8.43;;
9773;SDS011;4926;42.670;23.316;2023-06-14T13:54:48;10.70;;;8.35;;
9773;SDS011;4926;42.670;23.316;2023-06-14T13:57:15;11.68;;;9.90;;
9773;SDS011;4926;42.670;23.316;2023-06-14T13:59:42;10.57;;;9.25;;
9773;SDS011;4926;42.670;23.316;2023-06-14T14:02:10;11.27;;;9.65;;
9773;SDS011;4926;42.670;23.316;2023-06-14T14:04:37;9.80;;;8.90;;
9773;SDS011;4926;42.670;23.316;2023-06-14T14:07:05;10.38;;;8.25;;
9773;SDS011;4926;42.670;23.316;2023-06-14T14:09:34;9.82;;;7.63;;
9773;SDS011;4926;42.670;23.316;2023-06-14T14:12:02;9.10;;;8.30;;
9773;SDS011;4926;42.670;23.316;2023-06-14T14:14:29;8.48;;;7.63;;
9773;SDS011;4926;42.670;23.316;2023-06-14T14:17:03;9.60;;;7.95;;
9773;SDS011;4926;42.670;23.316;2023-06-14T14:19:30;8.30;;;7.30;;
9773;SDS011;4926;42.670;23.316;2023-06-14T14:21:56;7.13;;;6.43;;
9773;SDS011;4926;42.670;23.316;2023-06-14T14:24:23;8.10;;;7.30;;
9773;SDS011;4926;42.670;23.316;2023-06-14T14:26:51;9.10;;;7.13;;
9773;SDS011;4926;42.670;23.316;2023-06-14T14:29:18;7.50;;;6.78;;
9773;SDS011;4926;42.670;23.316;2023-06-14T14:31:45;7.80;;;6.70;;
9773;SDS011;4926;42.670;23.316;2023-06-14T14:34:12;7.43;;;6.70;;
9773;SDS011;4926;42.670;23.316;2023-06-14T14:36:39;7.43;;;6.72;;
9773;SDS011;4926;42.670;23.316;2023-06-14T14:39:07;7.43;;;6.35;;
9773;SDS011;4926;42.670;23.316;2023-06-14T14:41:34;7.35;;;6.65;;
9773;SDS011;4926;42.670;23.316;2023-06-14T14:44:02;7.63;;;6.53;;
9773;SDS011;4926;42.670;23.316;2023-06-14T14:46:29;11.95;;;7.10;;
9773;SDS011;4926;42.670;23.316;2023-06-14T14:48:56;8.73;;;7.78;;
9773;SDS011;4926;42.670;23.316;2023-06-14T14:51:22;9.35;;;7.70;;
9773;SDS011;4926;42.670;23.316;2023-06-14T14:53:49;8.82;;;6.75;;
9773;SDS011;4926;42.670;23.316;2023-06-14T14:56:22;8.88;;;8.05;;